Time;durP1;ratioP1;P1;durP2;ratioP2;P2;SDS_P1;SDS_P2;PMS_P1;PMS_P2;Temp;Humidity;BMP_temperature;BMP_pressure;BME280_temperature;BME280_humidity;BME280_pressure;Samples;Min_cycle;Max_cycle;Signal;HPM_P1;HPM_P2
2024/04/20 00:00:45;;;;;;;1.60;0.90;;;14.80;60.40;;;;;;4498421;26;20048;-46
2024/04/20 00:03:28;;;;;;;1.73;0.70;;;14.80;60.40;;;;;;4496849;26;20021;-48
2024/04/20 00:06:16;;;;;;;2.20;0.85;;;14.80;60.80;;;;;;4473935;26;20076;-46
2024/04/20 00:09:00;;;;;;;3.70;1.15;;;14.80;60.40;;;;;;4465641;26;20042;-48
2024/04/20 00:11:43;;;;;;;2.08;1.08;;;14.80;60.80;;;;;;4466259;26;20014;-47
2024/04/20 00:14:29;;;;;;;4.85;1.08;;;14.80;60.60;;;;;;4468029;26;20091;-56
2024/04/20 00:17:11;;;;;;;1.50;0.93;;;14.80;60.40;;;;;;4466178;26;20018;-52
2024/04/20 00:19:55;;;;;;;4.10;1.23;;;14.80;61.20;;;;;;4486511;26;20507;-56
2024/04/20 00:22:39;;;;;;;3.22;0.95;;;14.70;61.30;;;;;;4491631;26;20520;-55
2024/04/20 00:25:22;;;;;;;4.18;0.90;;;14.70;59.80;;;;;;4495843;26;20044;-55
2024/04/20 00:28:05;;;;;;;3.72;1.05;;;14.70;59.60;;;;;;4474735;26;20100;-53
2024/04/20 00:30:59;;;;;;;1.65;1.00;;;14.70;58.90;;;;;;4454178;26;20013;-54
2024/04/20 00:33:43;;;;;;;4.25;1.73;;;14.70;59.00;;;;;;4462223;26;20531;-47
2024/04/20 00:36:27;;;;;;;5.60;1.15;;;14.70;58.80;;;;;;4485378;26;20014;-47
2024/04/20 00:39:10;;;;;;;5.05;0.88;;;14.70;58.90;;;;;;4487409;26;20334;-48
2024/04/20 00:41:55;;;;;;;4.72;1.27;;;14.70;58.50;;;;;;4486254;26;20044;-50
2024/04/20 00:44:41;;;;;;;2.90;1.15;;;14.70;58.40;;;;;;4503054;26;20042;-46
2024/04/20 00:47:28;;;;;;;4.13;0.88;;;14.60;58.90;;;;;;4463863;26;20020;-47
2024/04/20 00:50:11;;;;;;;4.95;1.20;;;14.60;59.00;;;;;;4462042;26;20086;-47
2024/04/20 00:52:55;;;;;;;3.75;0.88;;;14.60;59.20;;;;;;4462497;26;20018;-47
2024/04/20 00:55:39;;;;;;;5.20;1.00;;;14.60;59.40;;;;;;4474326;26;20108;-46
2024/04/20 00:58:23;;;;;;;2.08;0.95;;;14.60;60.00;;;;;;4494992;26;20448;-50
2024/04/20 01:01:06;;;;;;;4.43;0.88;;;14.60;60.60;;;;;;4483726;26;20010;-48
2024/04/20 01:03:52;;;;;;;2.28;0.80;;;14.60;61.50;;;;;;4467371;26;20041;-56
2024/04/20 01:06:36;;;;;;;4.45;0.80;;;14.60;62.10;;;;;;4467233;26;20054;-51
2024/04/20 01:09:19;;;;;;;2.05;0.40;;;14.50;62.80;;;;;;4476845;26;20056;-51
2024/04/20 01:12:02;;;;;;;2.33;0.70;;;14.50;63.50;;;;;;4499117;26;20043;-55
2024/04/20 01:14:45;;;;;;;3.67;0.80;;;14.50;64.00;;;;;;4495361;26;20341;-54
2024/04/20 01:17:28;;;;;;;4.00;1.02;;;14.50;64.40;;;;;;4492976;26;20349;-46
2024/04/20 01:20:15;;;;;;;3.88;0.82;;;14.60;64.70;;;;;;4496468;26;20014;-46
2024/04/20 01:22:59;;;;;;;1.42;0.70;;;14.60;65.30;;;;;;4498413;26;20013;-54
2024/04/20 01:25:51;;;;;;;1.48;0.70;;;14.60;66.20;;;;;;4497149;26;20061;-56
2024/04/20 01:28:34;;;;;;;2.75;0.82;;;14.70;66.60;;;;;;4495137;26;20050;-49
2024/04/20 01:31:17;;;;;;;5.10;0.80;;;14.70;66.70;;;;;;4495907;26;20493;-54
2024/04/20 01:34:00;;;;;;;2.92;0.95;;;14.80;66.50;;;;;;4498815;26;20136;-53
2024/04/20 01:36:43;;;;;;;3.50;0.95;;;14.80;66.10;;;;;;4492548;26;20039;-53
2024/04/20 01:39:26;;;;;;;2.83;0.95;;;14.80;66.10;;;;;;4497463;26;20455;-52
2024/04/20 01:42:12;;;;;;;7.50;1.65;;;14.80;67.10;;;;;;4469744;26;20072;-51
2024/04/20 01:44:55;;;;;;;1.70;0.90;;;14.80;68.30;;;;;;4467162;26;20052;-52
2024/04/20 01:47:37;;;;;;;4.45;1.05;;;14.80;67.50;;;;;;4496800;26;20013;-55
2024/04/20 01:50:21;;;;;;;3.58;1.20;;;14.90;67.50;;;;;;4470452;26;20014;-54
2024/04/20 01:53:04;;;;;;;2.15;0.77;;;14.90;67.50;;;;;;4470675;26;20081;-54
2024/04/20 01:55:48;;;;;;;1.48;0.88;;;14.90;67.20;;;;;;4484468;26;20075;-53
2024/04/20 01:58:33;;;;;;;3.10;0.70;;;14.90;66.20;;;;;;4491721;26;20009;-53
2024/04/20 02:01:17;;;;;;;1.00;0.65;;;14.90;65.90;;;;;;4491350;26;20078;-52
2024/04/20 02:04:00;;;;;;;1.00;0.55;;;14.80;66.80;;;;;;4484900;26;20015;-54
2024/04/20 02:06:43;;;;;;;1.40;0.60;;;14.80;66.10;;;;;;4466388;26;20137;-47
2024/04/20 02:09:26;;;;;;;2.03;0.50;;;14.80;67.40;;;;;;4468451;26;20077;-53
2024/04/20 02:12:10;;;;;;;0.95;0.68;;;14.80;67.80;;;;;;4468845;26;20077;-52
2024/04/20 02:14:56;;;;;;;3.72;0.68;;;14.80;67.80;;;;;;4488090;26;20082;-49
2024/04/20 02:17:39;;;;;;;1.83;0.60;;;14.90;68.00;;;;;;4496099;26;20855;-50
2024/04/20 02:20:23;;;;;;;2.67;0.50;;;15.00;68.20;;;;;;4498567;26;20379;-51
2024/04/20 02:23:06;;;;;;;2.50;0.98;;;15.10;68.10;;;;;;4490506;26;20023;-48
2024/04/20 02:25:49;;;;;;;2.80;0.82;;;15.30;68.20;;;;;;4471002;26;20022;-51
2024/04/20 02:28:32;;;;;;;2.95;0.82;;;15.40;67.30;;;;;;4486312;26;20032;-48
2024/04/20 02:31:17;;;;;;;1.42;0.85;;;15.40;67.60;;;;;;4496306;26;20013;-49
2024/04/20 02:34:01;;;;;;;4.43;0.88;;;15.40;67.10;;;;;;4497185;26;20075;-48
2024/04/20 02:36:44;;;;;;;2.97;0.75;;;15.50;67.20;;;;;;4486717;26;20018;-50
2024/04/20 02:39:27;;;;;;;1.70;0.77;;;15.50;67.10;;;;;;4487778;26;20017;-51
2024/04/20 02:42:10;;;;;;;2.28;0.60;;;15.40;67.30;;;;;;4467926;26;20021;-48
2024/04/20 02:44:54;;;;;;;2.72;0.73;;;15.40;67.60;;;;;;4470661;26;20018;-51
2024/04/20 02:47:39;;;;;;;1.70;0.80;;;15.40;68.70;;;;;;4467306;26;20015;-50
2024/04/20 02:50:22;;;;;;;2.10;1.33;;;15.50;68.00;;;;;;4466893;26;20519;-49
2024/04/20 02:53:06;;;;;;;2.40;0.90;;;15.50;68.00;;;;;;4468091;26;20075;-52
2024/04/20 02:55:49;;;;;;;1.02;0.60;;;15.50;68.10;;;;;;4455175;26;20011;-53
2024/04/20 02:58:32;;;;;;;1.00;0.68;;;15.50;68.10;;;;;;4459904;26;20017;-53
2024/04/20 03:01:15;;;;;;;3.60;0.70;;;15.50;68.00;;;;;;4465115;26;20076;-47
2024/04/20 03:04:01;;;;;;;1.77;0.70;;;15.50;67.60;;;;;;4470648;26;20367;-48
2024/04/20 03:06:43;;;;;;;0.85;0.60;;;15.40;67.50;;;;;;4486297;26;20073;-48
2024/04/20 03:09:27;;;;;;;0.55;0.43;;;15.40;68.80;;;;;;4497881;26;20013;-48
2024/04/20 03:12:10;;;;;;;1.80;0.50;;;15.30;68.00;;;;;;4497147;26;20010;-47
2024/04/20 03:14:54;;;;;;;2.15;0.68;;;15.30;68.20;;;;;;4468624;26;20013;-47
2024/04/20 03:17:37;;;;;;;1.70;0.45;;;15.30;68.40;;;;;;4468258;26;20449;-47
2024/04/20 03:20:23;;;;;;;4.20;0.60;;;15.30;68.30;;;;;;4487835;26;20039;-48
2024/04/20 03:23:06;;;;;;;3.80;0.50;;;15.30;68.40;;;;;;4490427;26;20321;-47
2024/04/20 03:25:49;;;;;;;2.45;0.60;;;15.40;68.50;;;;;;4467783;26;20076;-49
2024/04/20 03:28:29;;;;;;;2.63;0.68;;;15.40;68.80;;;;;;4466723;26;20207;-51
2024/04/20 03:31:13;;;;;;;1.50;0.70;;;15.40;69.00;;;;;;4466516;26;20014;-46
2024/04/20 03:33:59;;;;;;;2.95;0.52;;;15.50;68.70;;;;;;4489101;26;20010;-47
2024/04/20 03:36:44;;;;;;;1.70;0.82;;;15.60;68.60;;;;;;4492222;26;20014;-48
2024/04/20 03:39:27;;;;;;;2.45;0.70;;;15.60;68.40;;;;;;4475648;26;20057;-54
2024/04/20 03:42:10;;;;;;;1.80;0.63;;;15.60;68.50;;;;;;4467387;26;20029;-54
2024/04/20 03:44:54;;;;;;;2.88;0.88;;;15.60;68.50;;;;;;4489661;26;20017;-53
2024/04/20 03:47:37;;;;;;;1.23;0.38;;;15.70;68.70;;;;;;4496643;26;20018;-53
2024/04/20 03:50:23;;;;;;;1.70;0.63;;;15.70;68.40;;;;;;4495645;26;20476;-54
2024/04/20 03:53:08;;;;;;;1.25;0.70;;;15.70;68.40;;;;;;4496563;26;20061;-54
2024/04/20 03:55:52;;;;;;;1.00;0.57;;;15.70;68.30;;;;;;4465836;26;20013;-53
2024/04/20 03:58:34;;;;;;;0.60;0.60;;;15.70;68.50;;;;;;4467429;26;20019;-50
2024/04/20 04:01:17;;;;;;;1.50;0.60;;;15.60;68.50;;;;;;4467750;26;20017;-52
2024/04/20 04:04:00;;;;;;;1.35;0.80;;;15.60;68.60;;;;;;4447187;26;20007;-55
2024/04/20 04:06:44;;;;;;;3.03;0.70;;;15.60;68.80;;;;;;4465602;26;20083;-55
2024/04/20 04:09:30;;;;;;;2.67;1.00;;;15.60;69.10;;;;;;4468511;26;20418;-54
2024/04/20 04:12:14;;;;;;;2.50;0.80;;;15.60;69.40;;;;;;4461051;26;20015;-55
2024/04/20 04:14:57;;;;;;;1.02;0.63;;;15.70;69.00;;;;;;4470160;26;20064;-54
2024/04/20 04:17:40;;;;;;;3.38;0.55;;;15.80;68.90;;;;;;4462678;26;20290;-55
2024/04/20 04:20:24;;;;;;;1.98;0.50;;;15.80;68.60;;;;;;4464491;26;20064;-48
2024/04/20 04:23:07;;;;;;;3.15;0.50;;;15.80;68.30;;;;;;4480160;26;20071;-46
2024/04/20 04:25:53;;;;;;;0.57;0.43;;;15.80;68.40;;;;;;4468273;26;20011;-49
2024/04/20 04:28:36;;;;;;;0.75;0.50;;;15.90;68.20;;;;;;4465170;26;20015;-55
2024/04/20 04:31:22;;;;;;;1.17;0.60;;;15.90;68.00;;;;;;4467409;26;20013;-56
2024/04/20 04:34:05;;;;;;;0.75;0.50;;;16.00;67.90;;;;;;4472276;26;20070;-50
2024/04/20 04:36:48;;;;;;;1.13;0.50;;;16.00;67.80;;;;;;4495138;26;20075;-50
2024/04/20 04:39:31;;;;;;;5.90;1.05;;;16.00;67.90;;;;;;4493890;26;20006;-49
2024/04/20 04:42:17;;;;;;;1.42;0.52;;;16.00;67.90;;;;;;4488316;26;20011;-50
2024/04/20 04:45:01;;;;;;;1.90;0.70;;;15.90;67.70;;;;;;4467281;26;20064;-52
2024/04/20 04:47:44;;;;;;;5.32;0.80;;;15.90;68.10;;;;;;4464614;26;20329;-54
2024/04/20 04:50:28;;;;;;;2.17;0.60;;;16.00;68.00;;;;;;4466627;26;20084;-55
2024/04/20 04:53:12;;;;;;;0.98;0.60;;;16.00;67.70;;;;;;4467488;26;20072;-51
2024/04/20 04:55:55;;;;;;;1.08;0.57;;;16.00;67.80;;;;;;4485644;26;20338;-47
2024/04/20 04:58:41;;;;;;;1.50;0.50;;;16.00;67.80;;;;;;4493545;26;20014;-48
2024/04/20 05:01:25;;;;;;;1.73;0.40;;;15.90;68.10;;;;;;4482894;26;20069;-47
2024/04/20 05:04:08;;;;;;;0.70;0.60;;;15.90;68.50;;;;;;4461844;26;20473;-47
2024/04/20 05:06:51;;;;;;;2.42;0.60;;;15.90;67.90;;;;;;4460992;26;20061;-47
2024/04/20 05:09:35;;;;;;;2.92;1.08;;;16.00;68.10;;;;;;4472126;26;20076;-49
2024/04/20 05:12:17;;;;;;;3.60;0.55;;;16.00;68.20;;;;;;4464146;26;20011;-47
2024/04/20 05:15:03;;;;;;;0.60;0.60;;;16.00;67.80;;;;;;4462970;26;20018;-47
2024/04/20 05:17:46;;;;;;;1.48;0.60;;;15.90;69.20;;;;;;4464552;26;20101;-48
2024/04/20 05:20:31;;;;;;;1.77;0.60;;;15.90;68.50;;;;;;4466327;26;20013;-49
2024/04/20 05:23:14;;;;;;;2.08;0.60;;;15.90;68.70;;;;;;4473310;26;20076;-49
2024/04/20 05:25:57;;;;;;;1.85;0.60;;;16.00;69.00;;;;;;4495490;26;20018;-49
2024/04/20 05:28:40;;;;;;;3.15;0.63;;;16.00;68.80;;;;;;4496038;26;20014;-51
2024/04/20 05:31:26;;;;;;;2.08;0.50;;;16.00;68.80;;;;;;4483447;26;20018;-49
2024/04/20 05:34:09;;;;;;;1.08;0.60;;;16.00;68.60;;;;;;4494064;26;20306;-48
2024/04/20 05:36:52;;;;;;;2.53;0.73;;;16.00;68.70;;;;;;4493517;26;20410;-49
2024/04/20 05:39:35;;;;;;;2.45;0.63;;;16.00;68.90;;;;;;4496103;26;20377;-52
2024/04/20 05:42:18;;;;;;;2.17;0.40;;;15.90;68.90;;;;;;4497194;26;20014;-50
2024/04/20 05:45:01;;;;;;;1.67;0.55;;;15.90;69.00;;;;;;4466763;26;20453;-51
2024/04/20 05:47:46;;;;;;;0.80;0.40;;;16.00;69.10;;;;;;4448183;26;20010;-49
2024/04/20 05:50:29;;;;;;;2.55;0.40;;;16.00;69.00;;;;;;4469233;26;20088;-50
2024/04/20 05:53:12;;;;;;;0.60;0.55;;;16.00;69.10;;;;;;4478324;26;20017;-49
2024/04/20 05:55:55;;;;;;;1.02;0.63;;;16.00;68.80;;;;;;4464208;26;20070;-51
2024/04/20 05:58:38;;;;;;;2.67;0.60;;;16.10;68.30;;;;;;4465196;26;20018;-50
2024/04/20 06:01:23;;;;;;;1.58;0.40;;;16.10;68.40;;;;;;4468299;26;20057;-51
2024/04/20 06:04:08;;;;;;;0.63;0.40;;;16.10;68.30;;;;;;4470642;26;20014;-50
2024/04/20 06:06:51;;;;;;;1.63;0.43;;;16.10;68.10;;;;;;4485229;26;20010;-49
2024/04/20 06:09:35;;;;;;;0.60;0.20;;;16.10;68.00;;;;;;4495842;26;21615;-55
2024/04/20 06:12:19;;;;;;;1.98;0.40;;;16.20;67.70;;;;;;4493879;26;20080;-55
2024/04/20 06:15:02;;;;;;;1.27;0.50;;;16.20;67.70;;;;;;4496250;26;20449;-54
2024/04/20 06:17:45;;;;;;;1.67;0.20;;;16.20;67.50;;;;;;4497207;26;20017;-57
2024/04/20 06:20:30;;;;;;;1.10;0.40;;;16.20;67.50;;;;;;4495148;26;20017;-56
2024/04/20 06:23:14;;;;;;;2.00;0.30;;;16.20;67.40;;;;;;4470673;26;20022;-55
2024/04/20 06:25:57;;;;;;;2.15;0.45;;;16.20;67.40;;;;;;4468024;26;20504;-55
2024/04/20 06:28:40;;;;;;;1.20;0.70;;;16.10;67.20;;;;;;4469045;26;20080;-53
2024/04/20 06:31:23;;;;;;;0.52;0.30;;;16.10;67.50;;;;;;4469983;26;20050;-53
2024/04/20 06:34:06;;;;;;;1.02;0.35;;;16.20;66.70;;;;;;4468612;26;20338;-51
2024/04/20 06:36:51;;;;;;;2.25;0.45;;;16.30;65.50;;;;;;4464810;26;20468;-53
2024/04/20 06:39:34;;;;;;;3.45;0.63;;;16.30;64.50;;;;;;4469155;26;20007;-51
2024/04/20 06:42:18;;;;;;;0.85;0.30;;;16.30;64.20;;;;;;4494861;26;20071;-52
2024/04/20 06:45:01;;;;;;;1.95;0.90;;;16.20;64.30;;;;;;4497023;26;20010;-51
2024/04/20 06:47:44;;;;;;;2.13;0.65;;;16.20;65.00;;;;;;4489761;26;20018;-53
2024/04/20 06:50:27;;;;;;;4.05;0.70;;;16.10;65.30;;;;;;4470081;26;20479;-51
2024/04/20 06:53:13;;;;;;;1.42;0.75;;;16.10;65.60;;;;;;4469516;26;20080;-51
2024/04/20 06:55:58;;;;;;;2.08;0.82;;;16.10;66.00;;;;;;4495212;26;20021;-52
2024/04/20 06:58:42;;;;;;;2.78;0.70;;;16.10;66.20;;;;;;4466498;26;20077;-53
2024/04/20 07:01:25;;;;;;;5.32;1.45;;;16.10;65.90;;;;;;4487387;26;20010;-51
2024/04/20 07:04:08;;;;;;;2.47;0.90;;;16.10;65.90;;;;;;4467451;26;20044;-53
2024/04/20 07:06:51;;;;;;;6.43;1.55;;;16.10;65.50;;;;;;4478113;26;20039;-46
2024/04/20 07:09:36;;;;;;;4.65;1.38;;;16.10;65.40;;;;;;4488116;26;20094;-46
2024/04/20 07:12:20;;;;;;;8.57;1.08;;;16.10;65.10;;;;;;4462489;26;20731;-46
2024/04/20 07:15:03;;;;;;;5.95;1.38;;;16.20;64.20;;;;;;4466716;26;20191;-46
2024/04/20 07:17:48;;;;;;;3.42;1.02;;;16.20;63.90;;;;;;4467031;26;20076;-45
2024/04/20 07:20:33;;;;;;;3.97;1.58;;;16.20;64.20;;;;;;4459009;26;20080;-45
2024/04/20 07:23:16;;;;;;;4.40;1.30;;;16.20;64.20;;;;;;4482282;26;20395;-46
2024/04/20 07:26:03;;;;;;;3.90;1.10;;;16.20;63.80;;;;;;4463605;26;20014;-45
2024/04/20 07:28:46;;;;;;;3.35;1.10;;;16.10;63.50;;;;;;4476780;26;20060;-52
2024/04/20 07:31:30;;;;;;;5.50;1.00;;;16.10;63.90;;;;;;4491182;26;20075;-52
2024/04/20 07:34:13;;;;;;;5.85;1.63;;;16.10;63.50;;;;;;4473683;26;20014;-53
2024/04/20 07:36:56;;;;;;;5.18;1.00;;;16.10;62.60;;;;;;4462592;26;20534;-52
2024/04/20 07:39:39;;;;;;;5.57;0.98;;;16.10;60.80;;;;;;4455861;26;20018;-52
2024/04/20 07:42:28;;;;;;;4.13;1.20;;;16.00;62.10;;;;;;4460457;26;20014;-46
2024/04/20 07:45:11;;;;;;;6.18;1.13;;;16.00;64.10;;;;;;4494136;26;20449;-46
2024/04/20 07:47:56;;;;;;;2.25;0.90;;;16.00;65.00;;;;;;4481599;26;20014;-45
2024/04/20 07:50:39;;;;;;;6.93;0.90;;;16.00;64.00;;;;;;4486992;26;20159;-44
2024/04/20 07:53:24;;;;;;;3.40;0.75;;;16.00;64.40;;;;;;4463092;26;20010;-43
2024/04/20 07:56:08;;;;;;;4.63;1.15;;;16.00;64.30;;;;;;4459410;26;20150;-48
2024/04/20 07:58:53;;;;;;;4.28;1.23;;;16.00;63.80;;;;;;4468455;26;20010;-48
2024/04/20 08:01:36;;;;;;;3.55;0.90;;;15.90;63.50;;;;;;4467060;26;20006;-47
2024/04/20 08:04:19;;;;;;;4.22;1.25;;;15.90;62.40;;;;;;4468062;26;20010;-45
2024/04/20 08:07:02;;;;;;;1.80;0.60;;;15.90;61.20;;;;;;4477443;26;20389;-46
2024/04/20 08:09:45;;;;;;;3.50;1.02;;;15.90;61.60;;;;;;4462615;26;20030;-48
2024/04/20 08:12:29;;;;;;;4.55;1.08;;;15.80;62.00;;;;;;4453650;26;20746;-45
2024/04/20 08:15:17;;;;;;;5.38;1.20;;;15.80;62.20;;;;;;4478146;26;20014;-44
2024/04/20 08:18:00;;;;;;;2.33;0.90;;;15.80;62.20;;;;;;4493975;26;20013;-47
2024/04/20 08:20:43;;;;;;;5.45;1.67;;;15.80;63.40;;;;;;4493570;26;20015;-45
2024/04/20 08:23:26;;;;;;;4.68;1.83;;;15.80;63.60;;;;;;4496200;26;20487;-45
2024/04/20 08:26:10;;;;;;;3.17;2.42;;;15.80;63.40;;;;;;4496960;26;20014;-54
2024/04/20 08:28:53;;;;;;;2.08;1.13;;;15.90;65.70;;;;;;4495680;26;20082;-55
2024/04/20 08:31:39;;;;;;;3.30;1.20;;;16.20;67.70;;;;;;4494651;26;20017;-55
2024/04/20 08:34:21;;;;;;;2.80;0.50;;;16.70;67.20;;;;;;4493676;26;20074;-52
2024/04/20 08:37:05;;;;;;;3.13;0.80;;;17.30;65.60;;;;;;4488215;26;20445;-54
2024/04/20 08:39:48;;;;;;;3.60;1.02;;;17.90;63.50;;;;;;4485520;26;20018;-53
2024/04/20 08:42:35;;;;;;;2.95;1.25;;;18.50;61.70;;;;;;4466346;26;20044;-44
2024/04/20 08:45:19;;;;;;;1.27;0.52;;;19.10;59.90;;;;;;4489905;26;20013;-44
2024/04/20 08:48:06;;;;;;;1.75;0.57;;;19.70;58.20;;;;;;4488345;26;20450;-48
2024/04/20 08:50:51;;;;;;;1.02;0.40;;;20.10;55.80;;;;;;4463435;26;20013;-47
2024/04/20 08:53:36;;;;;;;1.08;0.60;;;20.50;55.30;;;;;;4464993;26;20336;-46
2024/04/20 08:56:21;;;;;;;2.67;0.65;;;20.70;55.00;;;;;;4470815;26;20081;-47
2024/04/20 08:59:04;;;;;;;2.38;0.77;;;20.90;54.80;;;;;;4486079;26;20022;-45
2024/04/20 09:01:47;;;;;;;1.60;0.73;;;;;;;;;;4458721;26;20054;-55
2024/04/20 09:04:34;;;;;;;2.45;0.50;;;;;;;;;;4462961;26;20494;-51
2024/04/20 09:07:17;;;;;;;1.23;0.82;;;20.90;90.50;;;;;;4469716;26;20010;-52
2024/04/20 09:10:02;;;;;;;2.78;0.63;;;20.70;71.00;;;;;;4484693;26;20021;-51
2024/04/20 09:12:45;;;;;;;1.67;0.70;;;20.50;71.90;;;;;;4438179;26;20085;-52
2024/04/20 09:15:30;;;;;;;1.77;0.60;;;20.50;71.50;;;;;;4487929;26;20018;-52
2024/04/20 09:18:14;;;;;;;3.58;0.75;;;20.40;71.30;;;;;;4483541;26;20005;-54
2024/04/20 09:21:00;;;;;;;1.60;0.70;;;20.50;71.90;;;;;;4470072;26;20015;-53
2024/04/20 09:23:44;;;;;;;2.35;1.00;;;20.40;73.50;;;;;;4472161;26;20139;-52
2024/04/20 09:26:30;;;;;;;4.05;1.05;;;20.40;76.80;;;;;;4466509;26;20618;-46
2024/04/20 09:29:16;;;;;;;5.32;1.58;;;20.30;77.30;;;;;;4470665;26;20076;-48
2024/04/20 09:31:59;;;;;;;4.45;1.13;;;20.20;79.10;;;;;;4454705;26;20327;-48
2024/04/20 09:34:42;;;;;;;3.67;0.77;;;20.10;78.00;;;;;;4472984;26;20441;-47
2024/04/20 09:37:27;;;;;;;3.05;0.60;;;20.10;79.70;;;;;;4496858;26;20010;-48
2024/04/20 09:40:11;;;;;;;2.58;0.85;;;20.00;80.20;;;;;;4470491;26;20014;-49
2024/04/20 09:42:59;;;;;;;2.92;0.95;;;20.00;79.30;;;;;;4470807;26;20085;-47
2024/04/20 09:45:44;;;;;;;2.72;0.70;;;20.00;78.40;;;;;;4472152;26;20018;-47
2024/04/20 09:48:33;;;;;;;5.30;0.95;;;20.00;79.00;;;;;;4471103;26;20047;-46
2024/04/20 09:51:23;;;;;;;1.80;0.70;;;20.10;77.50;;;;;;4471512;26;20491;-45
2024/04/20 09:54:15;;;;;;;1.65;0.60;;;20.10;78.50;;;;;;4482325;26;20013;-45
2024/04/20 09:57:00;;;;;;;2.10;0.75;;;20.00;77.80;;;;;;4481269;26;20006;-45
2024/04/20 09:59:45;;;;;;;2.65;1.13;;;20.00;80.70;;;;;;4498966;26;20621;-46
2024/04/20 10:02:29;;;;;;;2.85;0.95;;;20.00;77.40;;;;;;4496885;26;20206;-45
2024/04/20 10:05:13;;;;;;;3.13;0.90;;;20.00;76.90;;;;;;4487943;26;20389;-50
2024/04/20 10:07:57;;;;;;;3.00;0.70;;;20.00;77.40;;;;;;4462870;26;20337;-47
2024/04/20 10:10:45;;;;;;;2.22;1.15;;;19.90;78.70;;;;;;4497897;26;20013;-46
2024/04/20 10:13:38;;;;;;;3.70;1.02;;;19.90;78.50;;;;;;4483972;26;20340;-44
2024/04/20 10:16:22;;;;;;;2.53;0.73;;;19.80;78.80;;;;;;4481006;26;20076;-45
2024/04/20 10:19:05;;;;;;;2.70;0.80;;;19.80;76.80;;;;;;4480387;26;20543;-47
2024/04/20 10:21:49;;;;;;;1.90;0.60;;;19.90;77.80;;;;;;4497093;26;20504;-44
2024/04/20 10:24:32;;;;;;;1.33;0.93;;;19.90;77.70;;;;;;4496776;26;20079;-45
2024/04/20 10:27:28;;;;;;;2.22;0.50;;;20.00;75.50;;;;;;4495430;26;20006;-50
2024/04/20 10:30:18;;;;;;;1.95;0.57;;;20.00;75.00;;;;;;4498266;26;20009;-47
2024/04/20 10:33:09;;;;;;;1.02;0.52;;;20.00;75.20;;;;;;4467599;26;20077;-50
2024/04/20 10:35:58;;;;;;;1.13;0.50;;;20.00;76.30;;;;;;4496922;26;20182;-47
2024/04/20 10:38:42;;;;;;;0.90;0.40;;;20.00;77.00;;;;;;4467873;26;20012;-45
2024/04/20 10:41:27;;;;;;;0.45;0.40;;;20.00;75.80;;;;;;4498701;26;20018;-51
2024/04/20 10:44:17;;;;;;;0.50;0.40;;;20.00;76.50;;;;;;4475924;26;20044;-50
2024/04/20 10:47:00;;;;;;;1.27;0.50;;;20.00;75.70;;;;;;4495074;26;20014;-47
2024/04/20 10:49:46;;;;;;;0.52;0.25;;;19.90;75.70;;;;;;4495072;26;20133;-45
2024/04/20 10:52:31;;;;;;;0.75;0.43;;;19.90;74.40;;;;;;4495823;26;20474;-47
2024/04/20 10:55:15;;;;;;;1.80;0.20;;;19.80;75.60;;;;;;4495155;26;20013;-46
2024/04/20 10:58:01;;;;;;;0.25;0.25;;;19.80;76.30;;;;;;4488799;26;20064;-53
2024/04/20 11:00:47;;;;;;;1.00;0.38;;;19.90;76.50;;;;;;4467499;26;20025;-45
2024/04/20 11:03:33;;;;;;;1.42;0.52;;;19.90;76.50;;;;;;4467176;26;20018;-45
2024/04/20 11:06:21;;;;;;;0.32;0.30;;;19.80;75.90;;;;;;4467915;26;20314;-44
2024/04/20 11:09:11;;;;;;;0.85;0.32;;;19.80;77.40;;;;;;4468696;26;20022;-46
2024/04/20 11:12:04;;;;;;;2.85;0.45;;;19.70;76.80;;;;;;4468199;26;20018;-53
2024/04/20 11:14:48;;;;;;;0.77;0.65;;;19.70;75.10;;;;;;4468128;26;20010;-52
2024/04/20 11:17:37;;;;;;;1.95;0.40;;;19.60;75.30;;;;;;4468586;26;20080;-50
2024/04/20 11:20:23;;;;;;;1.58;0.63;;;19.60;76.30;;;;;;4466292;26;20018;-51
2024/04/20 11:23:06;;;;;;;1.52;0.70;;;19.50;74.50;;;;;;4489363;26;20440;-51
2024/04/20 11:25:56;;;;;;;1.33;0.70;;;19.50;75.60;;;;;;4497500;26;20017;-53
2024/04/20 11:28:40;;;;;;;3.03;0.73;;;19.50;75.40;;;;;;4493610;26;20017;-54
2024/04/20 11:31:23;;;;;;;2.75;0.50;;;19.50;75.90;;;;;;4468229;26;20010;-55
2024/04/20 11:34:08;;;;;;;1.90;0.40;;;19.60;75.70;;;;;;4465151;26;20379;-52
2024/04/20 11:36:51;;;;;;;1.88;0.88;;;19.60;74.80;;;;;;4459445;26;20413;-53
2024/04/20 11:39:40;;;;;;;2.90;0.70;;;19.70;76.80;;;;;;4467610;26;20080;-51
2024/04/20 11:42:23;;;;;;;4.22;1.10;;;19.60;76.00;;;;;;4469169;26;20009;-53
2024/04/20 11:45:09;;;;;;;2.80;0.80;;;19.70;78.80;;;;;;4488492;26;20006;-51
2024/04/20 11:47:52;;;;;;;2.85;0.98;;;19.70;71.90;;;;;;4467985;26;20457;-50
2024/04/20 11:50:40;;;;;;;3.80;1.05;;;19.70;71.80;;;;;;4488415;26;20334;-44
2024/04/20 11:56:24;;;;;;;3.22;0.73;;;19.70;72.30;;;;;;4495392;26;20013;-45
2024/04/20 11:59:14;;;;;;;4.82;0.70;;;19.70;71.90;;;;;;4486283;26;20081;-46
2024/04/20 12:01:57;;;;;;;1.83;0.60;;;19.80;72.30;;;;;;4456372;26;20042;-46
2024/04/20 12:04:40;;;;;;;3.70;0.70;;;19.80;71.20;;;;;;4504143;26;20433;-45
2024/04/20 12:07:26;;;;;;;2.20;0.90;;;19.80;71.50;;;;;;4486389;26;20433;-50
2024/04/20 12:10:11;;;;;;;1.27;0.47;;;19.80;72.00;;;;;;4451963;26;20417;-47
2024/04/20 12:12:55;;;;;;;1.00;0.50;;;19.80;71.20;;;;;;4473148;26;20010;-52
2024/04/20 12:15:38;;;;;;;0.40;0.40;;;19.70;72.30;;;;;;4449635;26;20121;-54
2024/04/20 12:18:22;;;;;;;0.50;0.43;;;19.70;70.40;;;;;;4452168;26;20101;-51
2024/04/20 12:21:05;;;;;;;2.15;0.60;;;19.70;70.60;;;;;;4460279;26;20013;-52
2024/04/20 12:23:53;;;;;;;1.35;0.45;;;19.70;71.70;;;;;;4468417;26;20082;-51
2024/04/20 12:26:36;;;;;;;1.30;0.47;;;19.70;71.10;;;;;;4468104;26;20450;-44
2024/04/20 12:29:19;;;;;;;1.17;0.50;;;19.70;71.20;;;;;;4483809;26;20135;-46
2024/04/20 12:32:05;;;;;;;2.97;0.70;;;19.70;71.50;;;;;;4482800;26;20633;-46
2024/04/20 12:34:50;;;;;;;2.05;0.65;;;19.80;70.00;;;;;;4468369;26;20080;-44
2024/04/20 12:37:33;;;;;;;1.70;0.95;;;19.80;69.00;;;;;;4476834;26;20061;-45
2024/04/20 12:40:21;;;;;;;2.05;0.60;;;19.80;69.20;;;;;;4481422;26;20010;-45
2024/04/20 12:43:03;;;;;;;0.50;0.40;;;19.80;69.90;;;;;;4474202;26;20469;-44
2024/04/20 12:45:47;;;;;;;1.00;0.60;;;19.80;70.60;;;;;;4497311;26;20056;-44
2024/04/20 12:48:29;;;;;;;1.60;0.80;;;19.80;70.70;;;;;;4477347;26;20338;-46
2024/04/20 12:51:13;;;;;;;1.23;0.60;;;19.80;70.10;;;;;;4496001;26;20017;-48
2024/04/20 12:53:57;;;;;;;1.52;0.50;;;19.70;70.70;;;;;;4496437;26;20038;-44
2024/04/20 12:56:46;;;;;;;1.90;0.68;;;19.70;69.90;;;;;;4496236;26;20014;-45
2024/04/20 12:59:29;;;;;;;1.02;0.52;;;19.60;70.20;;;;;;4462078;26;20048;-44
2024/04/20 13:02:12;;;;;;;0.68;0.50;;;19.50;69.80;;;;;;4464666;26;20019;-50
2024/04/20 13:04:55;;;;;;;1.50;0.40;;;19.50;69.10;;;;;;4483485;26;20015;-52
2024/04/20 13:07:38;;;;;;;1.38;0.40;;;19.30;67.50;;;;;;4497027;26;20321;-44
2024/04/20 13:10:22;;;;;;;2.50;0.50;;;19.20;66.80;;;;;;4492490;26;20046;-49
2024/04/20 13:13:08;;;;;;;1.13;0.40;;;19.10;67.80;;;;;;4494812;26;20342;-50
2024/04/20 13:15:55;;;;;;;1.95;0.57;;;18.90;68.60;;;;;;4493316;26;20029;-54
2024/04/20 13:18:38;;;;;;;3.00;0.60;;;18.80;68.70;;;;;;4496336;26;20057;-53
2024/04/20 13:21:21;;;;;;;2.78;0.50;;;18.80;69.90;;;;;;4479677;26;20020;-51
2024/04/20 13:24:04;;;;;;;1.17;0.40;;;18.80;69.80;;;;;;4508690;26;20018;-53
2024/04/20 13:26:48;;;;;;;1.23;0.60;;;18.80;69.20;;;;;;4487422;26;20127;-50
2024/04/20 13:29:39;;;;;;;1.70;0.85;;;18.80;67.80;;;;;;4475440;26;20372;-51
2024/04/20 13:32:22;;;;;;;2.92;0.60;;;18.90;67.90;;;;;;4452497;26;20036;-49
2024/04/20 13:35:06;;;;;;;1.98;0.77;;;18.90;67.90;;;;;;4490349;26;20013;-49
2024/04/20 13:37:49;;;;;;;1.75;0.50;;;18.90;67.80;;;;;;4491257;26;20024;-51
2024/04/20 13:40:33;;;;;;;1.65;0.70;;;18.80;68.60;;;;;;4490296;26;20016;-45
2024/04/20 13:43:17;;;;;;;2.08;0.80;;;18.80;68.90;;;;;;4485219;26;20449;-45
2024/04/20 13:46:10;;;;;;;2.70;0.65;;;18.80;69.00;;;;;;4496042;26;20358;-45
2024/04/20 13:48:56;;;;;;;1.70;0.70;;;18.80;70.20;;;;;;4471841;26;20036;-49
2024/04/20 13:51:44;;;;;;;2.80;0.60;;;18.80;69.10;;;;;;4452079;26;20011;-52
2024/04/20 13:54:27;;;;;;;1.15;0.70;;;18.80;69.00;;;;;;4466343;26;20047;-54
2024/04/20 13:57:10;;;;;;;0.77;0.65;;;18.80;68.90;;;;;;4449166;26;20057;-46
2024/04/20 13:59:56;;;;;;;1.80;0.90;;;18.80;68.60;;;;;;4461480;26;20014;-45
2024/04/20 14:02:42;;;;;;;3.13;0.47;;;18.70;69.10;;;;;;4489515;26;20014;-46
2024/04/20 14:05:25;;;;;;;1.02;0.50;;;18.70;69.40;;;;;;4466503;26;20888;-51
2024/04/20 14:08:09;;;;;;;2.05;0.63;;;18.60;68.80;;;;;;4469007;26;20339;-45
2024/04/20 14:11:00;;;;;;;1.73;0.68;;;18.60;70.00;;;;;;4472345;26;20013;-45
2024/04/20 14:13:43;;;;;;;1.45;0.70;;;18.60;70.10;;;;;;4476243;26;20083;-46
2024/04/20 14:16:30;;;;;;;1.02;0.40;;;18.70;70.20;;;;;;4496912;26;20017;-45
2024/04/20 14:19:20;;;;;;;0.98;0.80;;;18.70;70.60;;;;;;4444800;26;20080;-44